createdAt,value
2023-01-29T00:01:55.903Z,101880.41
2023-01-29T00:04:23.135Z,101872.81
2023-01-29T00:06:49.792Z,101882.00
2023-01-29T00:09:16.947Z,101888.97
2023-01-29T00:11:43.732Z,101878.81
2023-01-29T00:14:12.046Z,101890.22
2023-01-29T00:16:38.710Z,101880.97
2023-01-29T00:19:05.673Z,101886.34
2023-01-29T00:21:33.393Z,101892.63
2023-01-29T00:24:03.626Z,101901.25
2023-01-29T00:26:30.903Z,101901.41
2023-01-29T00:28:57.567Z,101901.19
2023-01-29T00:31:25.456Z,101914.03
2023-01-29T00:33:52.788Z,101902.50
2023-01-29T00:36:20.865Z,101899.22
2023-01-29T00:38:54.780Z,101901.03
2023-01-29T00:41:40.500Z,101901.97
2023-01-29T00:44:26.552Z,101894.28
2023-01-29T00:46:53.441Z,101896.66
2023-01-29T00:49:20.278Z,101888.31
2023-01-29T00:52:09.657Z,101882.59
2023-01-29T00:54:36.409Z,101882.09
2023-01-29T00:57:04.097Z,101887.03
2023-01-29T00:59:31.093Z,101870.84
2023-01-29T01:02:16.537Z,101889.69
2023-01-29T01:04:43.038Z,101880.31
2023-01-29T01:07:09.697Z,101868.78
2023-01-29T01:09:55.561Z,101866.34
2023-01-29T01:12:22.609Z,101860.03
2023-01-29T01:14:49.293Z,101857.06
2023-01-29T01:17:15.945Z,101867.81
2023-01-29T01:19:42.614Z,101863.63
2023-01-29T01:22:09.247Z,101864.09
2023-01-29T01:24:35.935Z,101863.31
2023-01-29T01:27:02.548Z,101865.94
2023-01-29T01:29:29.360Z,101862.75
2023-01-29T01:31:55.879Z,101855.53
2023-01-29T01:34:22.589Z,101857.28
2023-01-29T01:36:49.633Z,101846.88
2023-01-29T01:39:16.205Z,101838.88
2023-01-29T01:41:42.759Z,101832.91
2023-01-29T01:44:47.830Z,101833.78
2023-01-29T01:47:16.033Z,101828.22
2023-01-29T01:49:43.835Z,101821.06
2023-01-29T01:52:12.567Z,101817.50
2023-01-29T01:54:39.215Z,101811.59
2023-01-29T01:57:17.148Z,101812.28
2023-01-29T01:59:48.411Z,101814.09
2023-01-29T02:02:35.316Z,101812.69
2023-01-29T02:05:21.224Z,101817.81
2023-01-29T02:08:09.020Z,101814.34
2023-01-29T02:10:41.419Z,101817.13
2023-01-29T02:13:08.396Z,101807.28
2023-01-29T02:15:34.933Z,101807.75
2023-01-29T02:18:01.905Z,101814.31
2023-01-29T02:20:34.516Z,101819.38
2023-01-29T02:23:39.827Z,101816.78
2023-01-29T02:26:52.849Z,101817.16
2023-01-29T02:29:27.264Z,101817.25
2023-01-29T02:32:08.260Z,101826.00
2023-01-29T02:35:22.941Z,101821.25
2023-01-29T02:38:17.922Z,101830.59
2023-01-29T02:40:51.669Z,101839.63
2023-01-29T02:43:25.321Z,101842.00
2023-01-29T02:46:11.105Z,101838.69
2023-01-29T02:48:42.926Z,101849.69
2023-01-29T02:51:24.851Z,101855.44
2023-01-29T02:54:03.174Z,101852.28
2023-01-29T02:56:39.833Z,101860.66
2023-01-29T02:59:18.471Z,101851.97
2023-01-29T03:01:58.575Z,101850.09
2023-01-29T03:04:33.042Z,101852.94
2023-01-29T03:07:10.961Z,101845.81
2023-01-29T03:09:47.170Z,101842.88
2023-01-29T03:12:29.075Z,101833.50
2023-01-29T03:15:14.159Z,101832.44
2023-01-29T03:17:58.171Z,101840.91
2023-01-29T03:20:32.178Z,101833.47
2023-01-29T03:23:08.812Z,101836.78
2023-01-29T03:25:55.006Z,101842.16
2023-01-29T03:28:42.356Z,101841.16
2023-01-29T03:31:32.424Z,101850.25
2023-01-29T03:34:07.241Z,101853.47
2023-01-29T03:37:02.306Z,101859.97
2023-01-29T03:39:30.605Z,101862.03
2023-01-29T03:42:34.750Z,101855.16
2023-01-29T03:45:22.077Z,101848.66
2023-01-29T03:47:51.558Z,101846.94
2023-01-29T03:50:39.577Z,101841.38
2023-01-29T03:53:29.399Z,101829.50
2023-01-29T03:56:02.707Z,101834.88
2023-01-29T03:58:53.994Z,101846.53
2023-01-29T04:01:32.998Z,101853.41
2023-01-29T04:04:07.251Z,101848.63
2023-01-29T04:06:37.830Z,101852.13
2023-01-29T04:09:11.297Z,101851.47
2023-01-29T04:11:43.392Z,101852.91
2023-01-29T04:14:10.255Z,101834.78
2023-01-29T04:16:41.156Z,101833.72
2023-01-29T04:19:08.243Z,101825.00
2023-01-29T04:21:37.569Z,101815.81
2023-01-29T04:24:06.443Z,101807.88
2023-01-29T04:27:06.881Z,101807.41
2023-01-29T04:30:13.702Z,101811.38
2023-01-29T04:32:53.394Z,101789.84
2023-01-29T04:35:27.918Z,101798.97
2023-01-29T04:37:59.825Z,101810.88
2023-01-29T04:40:33.687Z,101819.81
2023-01-29T04:43:22.628Z,101825.47
2023-01-29T04:46:17.539Z,101831.16
2023-01-29T04:49:08.790Z,101835.91
2023-01-29T04:51:44.402Z,101837.72
2023-01-29T04:54:48.541Z,101835.91
2023-01-29T04:57:23.134Z,101848.91
2023-01-29T05:00:00.752Z,101838.84
2023-01-29T05:02:28.412Z,101834.84
2023-01-29T05:04:58.222Z,101834.41
2023-01-29T05:07:27.458Z,101825.31
2023-01-29T05:09:54.929Z,101815.06
2023-01-29T05:12:23.776Z,101824.25
2023-01-29T05:14:51.987Z,101830.25
2023-01-29T05:17:20.246Z,101831.25
2023-01-29T05:19:47.309Z,101825.25
2023-01-29T05:22:17.691Z,101824.84
2023-01-29T05:24:44.758Z,101820.69
2023-01-29T05:27:36.558Z,101803.84
2023-01-29T05:30:12.197Z,101798.00
2023-01-29T05:32:39.836Z,101803.53
2023-01-29T05:35:07.090Z,101801.88
2023-01-29T05:37:33.667Z,101817.44
2023-01-29T05:40:00.230Z,101815.97
2023-01-29T05:42:27.103Z,101826.78
2023-01-29T05:44:53.871Z,101828.34
2023-01-29T05:47:21.149Z,101823.41
2023-01-29T05:49:47.761Z,101828.28
2023-01-29T05:52:14.313Z,101822.94
2023-01-29T05:54:40.882Z,101824.50
2023-01-29T05:57:07.474Z,101818.97
2023-01-29T05:59:34.065Z,101818.34
2023-01-29T06:02:00.790Z,101821.72
2023-01-29T06:04:27.350Z,101829.19
2023-01-29T06:06:54.098Z,101829.50
2023-01-29T06:09:20.605Z,101828.84
2023-01-29T06:11:47.214Z,101819.53
2023-01-29T06:14:13.735Z,101817.72
2023-01-29T06:16:40.278Z,101824.59
2023-01-29T06:19:06.769Z,101822.28
2023-01-29T06:21:33.370Z,101814.63
2023-01-29T06:24:00.246Z,101819.56
2023-01-29T06:26:26.847Z,101813.94
2023-01-29T06:28:53.438Z,101816.78
2023-01-29T06:31:36.693Z,101812.97
2023-01-29T06:34:04.661Z,101803.50
2023-01-29T06:36:31.374Z,101799.47
2023-01-29T06:38:58.043Z,101800.88
2023-01-29T06:41:25.668Z,101796.31
2023-01-29T06:43:52.613Z,101804.34
2023-01-29T06:46:19.422Z,101803.91
2023-01-29T06:48:45.941Z,101804.56
2023-01-29T06:51:12.549Z,101808.00
2023-01-29T06:53:39.974Z,101816.44
2023-01-29T06:56:07.393Z,101818.22
2023-01-29T06:58:36.899Z,101814.69
2023-01-29T07:01:05.918Z,101819.75
2023-01-29T07:03:32.818Z,101829.22
2023-01-29T07:05:59.632Z,101821.72
2023-01-29T07:08:26.325Z,101826.81
2023-01-29T07:10:53.059Z,101836.41
2023-01-29T07:13:19.664Z,101850.25
2023-01-29T07:15:46.231Z,101855.41
2023-01-29T07:18:12.743Z,101845.94
2023-01-29T07:20:41.115Z,101855.03
2023-01-29T07:23:11.229Z,101846.22
2023-01-29T07:25:38.173Z,101838.34
2023-01-29T07:28:05.072Z,101844.06
2023-01-29T07:30:32.065Z,101842.91
2023-01-29T07:33:09.306Z,101846.72
2023-01-29T07:35:40.449Z,101855.41
2023-01-29T07:38:08.067Z,101856.69
2023-01-29T07:40:34.822Z,101861.28
2023-01-29T07:43:07.216Z,101857.91
2023-01-29T07:45:36.498Z,101849.41
2023-01-29T07:48:05.165Z,101831.84
2023-01-29T07:50:33.913Z,101828.25
2023-01-29T07:53:01.286Z,101818.75
2023-01-29T07:55:27.924Z,101814.16
2023-01-29T07:58:03.733Z,101817.31
2023-01-29T08:00:31.583Z,101816.88
2023-01-29T08:03:10.815Z,101812.41
2023-01-29T08:05:37.595Z,101826.53
2023-01-29T08:08:07.511Z,101834.84
2023-01-29T08:10:38.960Z,101841.94
2023-01-29T08:13:06.704Z,101853.00
2023-01-29T08:15:33.978Z,101863.03
2023-01-29T08:18:04.029Z,101865.72
2023-01-29T08:20:30.754Z,101862.50
2023-01-29T08:23:06.692Z,101859.47
2023-01-29T08:25:33.960Z,101831.72
2023-01-29T08:28:01.585Z,101827.03
2023-01-29T08:30:30.973Z,101827.34
2023-01-29T08:32:57.587Z,101823.66
2023-01-29T08:35:24.983Z,101833.91
2023-01-29T08:38:02.138Z,101836.53
2023-01-29T08:40:31.818Z,101841.00
2023-01-29T08:43:04.039Z,101849.91
2023-01-29T08:45:36.881Z,101851.50
2023-01-29T08:48:03.896Z,101843.19
2023-01-29T08:50:31.766Z,101841.81
2023-01-29T08:52:59.223Z,101841.91
2023-01-29T08:55:26.618Z,101849.38
2023-01-29T08:57:53.372Z,101848.03
2023-01-29T09:00:20.581Z,101849.94
2023-01-29T09:02:47.249Z,101843.25
2023-01-29T09:05:13.897Z,101853.09
2023-01-29T09:07:40.653Z,101863.53
2023-01-29T09:10:08.903Z,101880.84
2023-01-29T09:12:35.417Z,101886.13
2023-01-29T09:15:05.291Z,101875.72
2023-01-29T09:17:31.937Z,101880.88
2023-01-29T09:19:58.833Z,101884.38
2023-01-29T09:22:25.421Z,101894.84
2023-01-29T09:24:52.013Z,101899.59
2023-01-29T09:27:18.548Z,101897.19
2023-01-29T09:29:45.120Z,101899.28
2023-01-29T09:32:11.736Z,101899.09
2023-01-29T09:34:38.345Z,101905.22
2023-01-29T09:37:04.920Z,101913.84
2023-01-29T09:39:31.409Z,101899.88
2023-01-29T09:42:36.604Z,101895.84
2023-01-29T09:45:16.550Z,101889.81
2023-01-29T09:47:44.731Z,101893.72
2023-01-29T09:50:11.190Z,101885.59
2023-01-29T09:52:43.026Z,101885.81
2023-01-29T09:55:29.934Z,101892.19
2023-01-29T09:57:59.815Z,101897.50
2023-01-29T10:00:44.762Z,101899.03
2023-01-29T10:03:34.308Z,101897.75
2023-01-29T10:06:03.844Z,101894.53
2023-01-29T10:08:45.716Z,101880.66
2023-01-29T10:11:27.168Z,101866.91
2023-01-29T10:14:13.323Z,101848.88
2023-01-29T10:16:53.566Z,101850.03
2023-01-29T10:19:54.265Z,101843.66
2023-01-29T10:22:43.698Z,101842.84
2023-01-29T10:25:13.595Z,101835.06
2023-01-29T10:27:46.732Z,101821.25
2023-01-29T10:30:28.671Z,101834.13
2023-01-29T10:32:59.581Z,101828.59
2023-01-29T10:35:34.356Z,101825.31
2023-01-29T10:38:15.909Z,101823.59
2023-01-29T10:40:53.394Z,101818.19
2023-01-29T10:43:30.628Z,101816.69
2023-01-29T10:46:25.571Z,101821.16
2023-01-29T10:49:15.089Z,101810.38
2023-01-29T10:52:02.884Z,101801.84
2023-01-29T10:54:41.945Z,101798.50
2023-01-29T10:57:14.370Z,101785.97
2023-01-29T10:59:40.934Z,101793.50
2023-01-29T11:02:17.870Z,101779.03
2023-01-29T11:04:44.767Z,101785.34
2023-01-29T11:07:13.852Z,101776.00
2023-01-29T11:09:54.669Z,101769.03
2023-01-29T11:12:26.637Z,101765.22
2023-01-29T11:15:16.162Z,101763.03
2023-01-29T11:18:21.300Z,101765.94
2023-01-29T11:21:01.429Z,101756.00
2023-01-29T11:23:33.537Z,101761.16
2023-01-29T11:26:00.809Z,101753.06
2023-01-29T11:28:41.824Z,101751.44
2023-01-29T11:31:26.940Z,101745.66
2023-01-29T11:34:03.195Z,101742.00
2023-01-29T11:36:34.884Z,101739.41
2023-01-29T11:39:09.809Z,101717.47
2023-01-29T11:41:44.814Z,101725.28
2023-01-29T11:44:26.518Z,101724.13
2023-01-29T11:46:53.384Z,101725.63
2023-01-29T11:49:31.155Z,101714.44
2023-01-29T11:52:01.976Z,101713.69
2023-01-29T11:54:32.816Z,101711.91
2023-01-29T11:57:00.145Z,101699.22
2023-01-29T11:59:42.587Z,101700.13
2023-01-29T12:02:21.279Z,101695.63
2023-01-29T12:05:18.203Z,101687.13
2023-01-29T12:07:48.877Z,101682.81
2023-01-29T12:10:38.218Z,101678.09
2023-01-29T12:13:10.921Z,101690.06
2023-01-29T12:15:42.492Z,101679.00
2023-01-29T12:18:31.000Z,101675.88
2023-01-29T12:21:02.229Z,101669.88
2023-01-29T12:23:40.827Z,101665.31
2023-01-29T12:26:23.036Z,101656.03
2023-01-29T12:28:52.529Z,101644.72
2023-01-29T12:31:37.900Z,101634.53
2023-01-29T12:34:22.745Z,101641.53
2023-01-29T12:37:01.548Z,101639.19
2023-01-29T12:39:28.189Z,101627.34
2023-01-29T12:42:01.061Z,101633.69
2023-01-29T12:44:35.499Z,101628.78
2023-01-29T12:47:07.427Z,101641.13
2023-01-29T12:49:37.853Z,101634.94
2023-01-29T12:52:16.056Z,101623.72
2023-01-29T12:55:01.627Z,101625.75
2023-01-29T12:57:46.036Z,101626.81
2023-01-29T13:00:21.146Z,101620.41
2023-01-29T13:02:57.985Z,101606.75
2023-01-29T13:05:34.067Z,101599.41
2023-01-29T13:08:10.590Z,101594.31
2023-01-29T13:10:43.061Z,101595.97
2023-01-29T13:13:20.862Z,101586.88
2023-01-29T13:15:48.421Z,101581.88
2023-01-29T13:18:33.336Z,101574.03
2023-01-29T13:21:00.978Z,101587.03
2023-01-29T13:23:39.563Z,101581.63
2023-01-29T13:26:06.493Z,101582.47
2023-01-29T13:28:33.420Z,101589.94
2023-01-29T13:31:27.346Z,101583.00
2023-01-29T13:34:22.045Z,101581.88
2023-01-29T13:36:55.710Z,101586.03
2023-01-29T13:39:30.325Z,101590.16
2023-01-29T13:41:59.048Z,101583.75
2023-01-29T13:44:37.802Z,101584.53
2023-01-29T13:47:11.285Z,101578.84
2023-01-29T13:49:45.101Z,101581.09
2023-01-29T13:52:21.188Z,101573.91
2023-01-29T13:54:58.008Z,101570.59
2023-01-29T13:57:49.887Z,101572.69
2023-01-29T14:00:22.632Z,101567.22
2023-01-29T14:02:55.194Z,101565.97
2023-01-29T14:05:30.852Z,101555.59
2023-01-29T14:08:26.152Z,101555.25
2023-01-29T14:11:35.989Z,101552.06
2023-01-29T14:14:02.954Z,101551.81
2023-01-29T14:16:35.591Z,101560.63
2023-01-29T14:19:04.299Z,101559.38
2023-01-29T14:21:33.385Z,101556.13
2023-01-29T14:24:19.478Z,101564.53
2023-01-29T14:26:48.228Z,101564.28
2023-01-29T14:29:34.359Z,101553.66
2023-01-29T14:32:11.618Z,101539.13
2023-01-29T14:34:47.912Z,101535.78
2023-01-29T14:37:14.472Z,101529.03
2023-01-29T14:39:56.290Z,101539.78
2023-01-29T14:42:26.527Z,101532.28
2023-01-29T14:44:59.174Z,101531.72
2023-01-29T14:47:25.574Z,101527.47
2023-01-29T14:49:58.580Z,101530.88
2023-01-29T14:52:47.554Z,101530.56
2023-01-29T14:55:39.547Z,101527.66
2023-01-29T14:58:11.156Z,101523.00
2023-01-29T15:00:43.419Z,101534.28
2023-01-29T15:03:20.790Z,101530.72
2023-01-29T15:05:49.356Z,101525.94
2023-01-29T15:08:23.870Z,101504.00
2023-01-29T15:11:15.815Z,101508.41
2023-01-29T15:14:01.213Z,101502.16
2023-01-29T15:16:40.372Z,101497.06
2023-01-29T15:19:31.727Z,101490.53
2023-01-29T15:22:10.327Z,101485.38
2023-01-29T15:24:38.960Z,101484.56
2023-01-29T15:27:25.761Z,101484.41
2023-01-29T15:30:01.354Z,101481.53
2023-01-29T15:32:30.492Z,101475.44
2023-01-29T15:34:58.680Z,101479.59
2023-01-29T15:37:33.821Z,101474.97
2023-01-29T15:40:01.357Z,101475.91
2023-01-29T15:42:29.544Z,101461.22
2023-01-29T15:44:56.265Z,101455.63
2023-01-29T15:47:30.541Z,101457.63
2023-01-29T15:49:57.650Z,101446.50
2023-01-29T15:52:28.952Z,101448.25
2023-01-29T15:55:01.595Z,101447.34
2023-01-29T15:57:37.306Z,101451.47
2023-01-29T16:00:05.391Z,101446.56
2023-01-29T16:03:16.444Z,101445.81
2023-01-29T16:05:43.479Z,101448.66
2023-01-29T16:08:14.067Z,101443.22
2023-01-29T16:10:42.187Z,101438.97
2023-01-29T16:13:41.688Z,101455.66
2023-01-29T16:16:28.014Z,101460.88
2023-01-29T16:19:00.408Z,101459.66
2023-01-29T16:21:33.002Z,101469.06
2023-01-29T16:24:09.359Z,101469.94
2023-01-29T16:26:47.659Z,101469.59
2023-01-29T16:29:21.690Z,101473.88
2023-01-29T16:31:50.911Z,101479.41
2023-01-29T16:34:20.353Z,101479.41
2023-01-29T16:36:49.017Z,101487.69
2023-01-29T16:39:20.479Z,101494.53
2023-01-29T16:42:21.938Z,101486.66
2023-01-29T16:44:54.572Z,101488.06
2023-01-29T16:47:27.488Z,101491.75
2023-01-29T16:50:00.666Z,101482.91
2023-01-29T16:52:33.782Z,101491.19
2023-01-29T16:55:15.299Z,101488.66
2023-01-29T16:57:47.276Z,101489.44
2023-01-29T17:00:24.153Z,101495.34
2023-01-29T17:02:53.515Z,101496.25
2023-01-29T17:05:29.461Z,101500.53
2023-01-29T17:07:58.393Z,101502.06
2023-01-29T17:10:28.066Z,101501.34
2023-01-29T17:12:56.720Z,101505.63
2023-01-29T17:15:45.336Z,101494.38
2023-01-29T17:18:18.781Z,101489.94
2023-01-29T17:20:45.537Z,101499.03
2023-01-29T17:23:12.195Z,101498.91
2023-01-29T17:25:39.145Z,101498.47
2023-01-29T17:28:05.934Z,101493.59
2023-01-29T17:30:37.175Z,101488.06
2023-01-29T17:33:15.739Z,101497.22
2023-01-29T17:35:44.173Z,101503.03
2023-01-29T17:38:25.472Z,101509.97
2023-01-29T17:40:57.579Z,101502.69
2023-01-29T17:43:24.370Z,101508.31
2023-01-29T17:45:50.963Z,101505.56
2023-01-29T17:48:24.710Z,101507.22
2023-01-29T17:50:54.011Z,101507.63
2023-01-29T17:53:22.090Z,101506.59
2023-01-29T17:55:50.028Z,101507.28
2023-01-29T17:58:21.877Z,101509.47
2023-01-29T18:00:48.842Z,101498.13
2023-01-29T18:03:15.706Z,101496.00
2023-01-29T18:05:43.981Z,101490.97
2023-01-29T18:08:31.173Z,101491.31
2023-01-29T18:10:57.891Z,101481.84
2023-01-29T18:13:24.755Z,101480.72
2023-01-29T18:15:51.848Z,101468.88
2023-01-29T18:18:20.100Z,101464.44
2023-01-29T18:20:46.871Z,101462.41
2023-01-29T18:23:13.511Z,101452.78
2023-01-29T18:25:40.827Z,101459.06
2023-01-29T18:28:07.608Z,101461.38
2023-01-29T18:30:34.363Z,101459.72
2023-01-29T18:33:00.961Z,101455.81
2023-01-29T18:35:27.727Z,101453.00
2023-01-29T18:37:54.909Z,101450.56
2023-01-29T18:40:21.580Z,101455.69
2023-01-29T18:42:48.249Z,101446.63
2023-01-29T18:45:16.115Z,101436.19
2023-01-29T18:47:42.879Z,101438.44
2023-01-29T18:50:11.080Z,101447.19
2023-01-29T18:52:37.871Z,101443.72
2023-01-29T18:55:04.725Z,101445.25
2023-01-29T18:58:29.523Z,101444.75
2023-01-29T19:00:26.851Z,101435.72
2023-01-29T19:02:53.509Z,101432.13
2023-01-29T19:05:22.875Z,101434.78
2023-01-29T19:07:49.752Z,101434.41
2023-01-29T19:10:16.981Z,101426.19
2023-01-29T19:12:43.865Z,101428.56
2023-01-29T19:15:11.555Z,101417.22
2023-01-29T19:17:39.287Z,101411.91
2023-01-29T19:20:06.420Z,101421.66
2023-01-29T19:22:33.258Z,101422.63
2023-01-29T19:25:00.077Z,101421.44
2023-01-29T19:27:30.377Z,101413.66
2023-01-29T19:30:00.194Z,101409.59
2023-01-29T19:32:28.921Z,101401.09
2023-01-29T19:34:55.449Z,101393.59
2023-01-29T19:37:22.355Z,101396.28
2023-01-29T19:39:49.108Z,101400.69
2023-01-29T19:42:16.218Z,101404.81
2023-01-29T19:44:45.884Z,101402.75
2023-01-29T19:47:12.613Z,101403.63
2023-01-29T19:49:40.515Z,101397.13
2023-01-29T19:52:14.737Z,101406.31
2023-01-29T19:54:46.230Z,101407.84
2023-01-29T19:57:12.792Z,101415.53
2023-01-29T19:59:39.441Z,101412.56
2023-01-29T20:02:06.498Z,101411.34
2023-01-29T20:04:33.313Z,101404.88
2023-01-29T20:06:59.932Z,101412.53
2023-01-29T20:09:26.591Z,101410.28
2023-01-29T20:11:53.154Z,101413.00
2023-01-29T20:14:19.857Z,101417.75
2023-01-29T20:16:46.417Z,101411.78
2023-01-29T20:19:14.882Z,101414.81
2023-01-29T20:21:45.285Z,101415.09
2023-01-29T20:24:13.230Z,101414.63
2023-01-29T20:26:41.761Z,101411.38
2023-01-29T20:29:08.537Z,101402.66
2023-01-29T20:31:35.286Z,101401.00
2023-01-29T20:34:01.866Z,101402.66
2023-01-29T20:36:28.643Z,101405.75
2023-01-29T20:38:55.153Z,101400.69
2023-01-29T20:41:21.775Z,101404.38
2023-01-29T20:43:50.856Z,101389.03
2023-01-29T20:46:18.148Z,101395.38
2023-01-29T20:48:44.985Z,101379.84
2023-01-29T20:51:19.862Z,101376.81
2023-01-29T20:53:47.968Z,101376.81
2023-01-29T20:56:16.260Z,101369.91
2023-01-29T20:58:43.546Z,101358.94
2023-01-29T21:01:19.015Z,101360.81
2023-01-29T21:03:46.792Z,101352.78
2023-01-29T21:06:14.189Z,101349.16
2023-01-29T21:08:40.834Z,101342.31
2023-01-29T21:11:09.009Z,101330.72
2023-01-29T21:13:36.043Z,101337.25
2023-01-29T21:16:03.570Z,101339.75
2023-01-29T21:18:30.255Z,101340.88
2023-01-29T21:20:57.242Z,101347.31
2023-01-29T21:23:23.979Z,101345.50
2023-01-29T21:25:50.667Z,101341.84
2023-01-29T21:28:17.626Z,101329.81
2023-01-29T21:30:44.703Z,101322.63
2023-01-29T21:33:11.417Z,101308.19
2023-01-29T21:35:38.470Z,101311.97
2023-01-29T21:38:05.378Z,101305.25
2023-01-29T21:40:32.088Z,101296.09
2023-01-29T21:43:15.616Z,101291.03
2023-01-29T21:45:42.991Z,101297.94
2023-01-29T21:48:11.957Z,101285.75
2023-01-29T21:50:38.833Z,101276.31
2023-01-29T21:53:05.866Z,101262.44
2023-01-29T21:55:32.893Z,101251.09
2023-01-29T21:58:00.338Z,101231.69
2023-01-29T22:00:27.524Z,101232.09
2023-01-29T22:02:54.247Z,101237.81
2023-01-29T22:05:21.006Z,101239.63
2023-01-29T22:07:48.482Z,101244.66
2023-01-29T22:10:17.271Z,101248.69
2023-01-29T22:12:44.710Z,101250.91
2023-01-29T22:15:12.322Z,101248.88
2023-01-29T22:17:41.171Z,101251.56
2023-01-29T22:20:20.516Z,101222.34
2023-01-29T22:22:47.490Z,101220.53
2023-01-29T22:25:19.954Z,101223.34
2023-01-29T22:27:46.824Z,101233.47
2023-01-29T22:30:13.606Z,101233.78
2023-01-29T22:32:40.169Z,101236.84
2023-01-29T22:35:07.108Z,101223.69
2023-01-29T22:37:33.669Z,101213.72
2023-01-29T22:40:00.220Z,101218.78
2023-01-29T22:42:27.847Z,101213.88
2023-01-29T22:44:54.331Z,101203.91
2023-01-29T22:47:21.014Z,101198.41
2023-01-29T22:49:49.990Z,101202.91
2023-01-29T22:52:21.044Z,101211.03
2023-01-29T22:54:47.562Z,101210.50
2023-01-29T22:57:15.906Z,101207.06
2023-01-29T22:59:42.842Z,101201.31
2023-01-29T23:02:09.759Z,101205.75
2023-01-29T23:04:36.828Z,101197.66
2023-01-29T23:07:03.462Z,101183.28
2023-01-29T23:09:30.028Z,101176.03
2023-01-29T23:11:56.528Z,101169.94
2023-01-29T23:14:23.090Z,101184.28
2023-01-29T23:16:49.748Z,101167.59
2023-01-29T23:19:16.233Z,101180.16
2023-01-29T23:21:42.843Z,101189.53
2023-01-29T23:24:10.079Z,101176.97
2023-01-29T23:26:55.243Z,101188.19
2023-01-29T23:29:21.817Z,101183.31
2023-01-29T23:31:48.586Z,101182.75
2023-01-29T23:34:15.694Z,101198.41
2023-01-29T23:36:42.655Z,101195.56
2023-01-29T23:39:09.426Z,101184.25
2023-01-29T23:41:36.020Z,101184.00
2023-01-29T23:44:03.064Z,101184.31
2023-01-29T23:46:30.150Z,101163.41
2023-01-29T23:48:56.825Z,101166.75
2023-01-29T23:51:23.450Z,101157.59
2023-01-29T23:53:49.962Z,101153.72
2023-01-29T23:56:16.538Z,101155.59
2023-01-29T23:58:43.914Z,101151.44
